sensor_id;sensor_type;location;lat;lon;timestamp;P1;durP1;ratioP1;P2;durP2;ratioP2
44248;SDS011;29923;48.718;9.272;2023-06-22T00:00:38;10.63;;;6.90;;
44248;SDS011;29923;48.718;9.272;2023-06-22T00:03:07;12.50;;;6.68;;
44248;SDS011;29923;48.718;9.272;2023-06-22T00:05:32;11.05;;;7.45;;
44248;SDS011;29923;48.718;9.272;2023-06-22T00:07:57;15.40;;;8.15;;
44248;SDS011;29923;48.718;9.272;2023-06-22T00:10:23;12.15;;;6.65;;
44248;SDS011;29923;48.718;9.272;2023-06-22T00:12:48;10.82;;;7.20;;
44248;SDS011;29923;48.718;9.272;2023-06-22T00:15:13;12.43;;;6.63;;
44248;SDS011;29923;48.718;9.272;2023-06-22T00:17:39;10.73;;;6.35;;
44248;SDS011;29923;48.718;9.272;2023-06-22T00:20:04;11.27;;;6.50;;
44248;SDS011;29923;48.718;9.272;2023-06-22T00:22:30;11.35;;;6.55;;
44248;SDS011;29923;48.718;9.272;2023-06-22T00:24:56;9.43;;;6.50;;
44248;SDS011;29923;48.718;9.272;2023-06-22T00:27:21;11.55;;;7.32;;
44248;SDS011;29923;48.718;9.272;2023-06-22T00:29:47;15.38;;;6.93;;
44248;SDS011;29923;48.718;9.272;2023-06-22T00:32:12;13.15;;;7.63;;
44248;SDS011;29923;48.718;9.272;2023-06-22T00:34:38;12.52;;;7.22;;
44248;SDS011;29923;48.718;9.272;2023-06-22T00:37:03;11.45;;;7.47;;
44248;SDS011;29923;48.718;9.272;2023-06-22T00:39:28;14.38;;;8.30;;
44248;SDS011;29923;48.718;9.272;2023-06-22T00:41:54;14.25;;;7.35;;
44248;SDS011;29923;48.718;9.272;2023-06-22T00:44:19;13.50;;;8.13;;
44248;SDS011;29923;48.718;9.272;2023-06-22T00:46:45;8.88;;;7.53;;
44248;SDS011;29923;48.718;9.272;2023-06-22T00:49:10;9.82;;;7.43;;
44248;SDS011;29923;48.718;9.272;2023-06-22T00:51:36;11.93;;;8.02;;
44248;SDS011;29923;48.718;9.272;2023-06-22T00:54:03;15.43;;;7.55;;
44248;SDS011;29923;48.718;9.272;2023-06-22T00:56:30;10.45;;;7.25;;
44248;SDS011;29923;48.718;9.272;2023-06-22T00:58:55;12.43;;;7.38;;
44248;SDS011;29923;48.718;9.272;2023-06-22T01:01:24;11.63;;;7.68;;
44248;SDS011;29923;48.718;9.272;2023-06-22T01:03:49;12.93;;;7.80;;
44248;SDS011;29923;48.718;9.272;2023-06-22T01:06:16;13.90;;;7.35;;
44248;SDS011;29923;48.718;9.272;2023-06-22T01:08:49;15.75;;;7.38;;
44248;SDS011;29923;48.718;9.272;2023-06-22T01:11:21;15.75;;;8.23;;
44248;SDS011;29923;48.718;9.272;2023-06-22T01:16:26;12.27;;;6.65;;
44248;SDS011;29923;48.718;9.272;2023-06-22T01:18:54;13.60;;;7.50;;
44248;SDS011;29923;48.718;9.272;2023-06-22T01:21:21;13.70;;;7.18;;
44248;SDS011;29923;48.718;9.272;2023-06-22T01:24:01;11.50;;;7.50;;
44248;SDS011;29923;48.718;9.272;2023-06-22T01:26:44;12.80;;;6.93;;
44248;SDS011;29923;48.718;9.272;2023-06-22T01:29:32;14.77;;;6.90;;
44248;SDS011;29923;48.718;9.272;2023-06-22T01:31:57;11.73;;;6.70;;
44248;SDS011;29923;48.718;9.272;2023-06-22T01:34:24;8.95;;;6.43;;
44248;SDS011;29923;48.718;9.272;2023-06-22T01:36:50;12.80;;;7.22;;
44248;SDS011;29923;48.718;9.272;2023-06-22T01:39:16;12.15;;;6.53;;
44248;SDS011;29923;48.718;9.272;2023-06-22T01:41:42;11.20;;;6.43;;
44248;SDS011;29923;48.718;9.272;2023-06-22T01:44:08;12.60;;;6.10;;
44248;SDS011;29923;48.718;9.272;2023-06-22T01:46:34;14.52;;;9.07;;
44248;SDS011;29923;48.718;9.272;2023-06-22T01:49:00;15.90;;;9.43;;
44248;SDS011;29923;48.718;9.272;2023-06-22T01:51:27;21.38;;;9.65;;
44248;SDS011;29923;48.718;9.272;2023-06-22T01:53:52;19.50;;;10.65;;
44248;SDS011;29923;48.718;9.272;2023-06-22T01:56:18;15.95;;;10.63;;
44248;SDS011;29923;48.718;9.272;2023-06-22T01:58:47;18.70;;;10.20;;
44248;SDS011;29923;48.718;9.272;2023-06-22T02:01:15;16.77;;;10.77;;
44248;SDS011;29923;48.718;9.272;2023-06-22T02:06:43;15.75;;;10.30;;
44248;SDS011;29923;48.718;9.272;2023-06-22T02:09:12;15.60;;;9.10;;
44248;SDS011;29923;48.718;9.272;2023-06-22T02:11:41;15.05;;;8.73;;
44248;SDS011;29923;48.718;9.272;2023-06-22T02:14:08;19.52;;;9.48;;
44248;SDS011;29923;48.718;9.272;2023-06-22T02:16:34;18.88;;;9.77;;
44248;SDS011;29923;48.718;9.272;2023-06-22T02:19:00;14.15;;;9.95;;
44248;SDS011;29923;48.718;9.272;2023-06-22T02:21:31;11.57;;;8.45;;
44248;SDS011;29923;48.718;9.272;2023-06-22T02:23:56;13.90;;;8.55;;
44248;SDS011;29923;48.718;9.272;2023-06-22T02:26:22;19.27;;;8.10;;
44248;SDS011;29923;48.718;9.272;2023-06-22T02:28:49;11.95;;;8.27;;
44248;SDS011;29923;48.718;9.272;2023-06-22T02:31:14;11.90;;;7.57;;
44248;SDS011;29923;48.718;9.272;2023-06-22T02:33:39;12.77;;;7.93;;
44248;SDS011;29923;48.718;9.272;2023-06-22T02:36:05;11.52;;;7.30;;
44248;SDS011;29923;48.718;9.272;2023-06-22T02:38:34;11.57;;;7.75;;
44248;SDS011;29923;48.718;9.272;2023-06-22T02:41:01;11.98;;;8.00;;
44248;SDS011;29923;48.718;9.272;2023-06-22T02:43:27;13.57;;;8.18;;
44248;SDS011;29923;48.718;9.272;2023-06-22T02:45:52;14.10;;;9.30;;
44248;SDS011;29923;48.718;9.272;2023-06-22T02:48:17;17.67;;;9.88;;
44248;SDS011;29923;48.718;9.272;2023-06-22T02:50:43;13.82;;;8.90;;
44248;SDS011;29923;48.718;9.272;2023-06-22T02:53:08;15.02;;;9.25;;
44248;SDS011;29923;48.718;9.272;2023-06-22T02:55:33;15.70;;;9.60;;
44248;SDS011;29923;48.718;9.272;2023-06-22T02:57:59;20.83;;;9.98;;
44248;SDS011;29923;48.718;9.272;2023-06-22T03:00:24;14.88;;;9.18;;
44248;SDS011;29923;48.718;9.272;2023-06-22T03:02:55;15.40;;;10.07;;
44248;SDS011;29923;48.718;9.272;2023-06-22T03:05:20;14.10;;;8.85;;
44248;SDS011;29923;48.718;9.272;2023-06-22T03:07:46;13.70;;;8.82;;
44248;SDS011;29923;48.718;9.272;2023-06-22T03:10:12;14.20;;;9.13;;
44248;SDS011;29923;48.718;9.272;2023-06-22T03:12:38;14.10;;;9.27;;
44248;SDS011;29923;48.718;9.272;2023-06-22T03:15:07;12.65;;;9.07;;
44248;SDS011;29923;48.718;9.272;2023-06-22T03:17:34;16.40;;;8.77;;
44248;SDS011;29923;48.718;9.272;2023-06-22T03:20:03;20.20;;;8.43;;
44248;SDS011;29923;48.718;9.272;2023-06-22T03:22:39;13.93;;;8.63;;
44248;SDS011;29923;48.718;9.272;2023-06-22T03:25:06;14.27;;;8.18;;
44248;SDS011;29923;48.718;9.272;2023-06-22T03:27:40;14.57;;;8.60;;
44248;SDS011;29923;48.718;9.272;2023-06-22T03:30:06;14.95;;;8.13;;
44248;SDS011;29923;48.718;9.272;2023-06-22T03:32:33;14.98;;;8.88;;
44248;SDS011;29923;48.718;9.272;2023-06-22T03:34:58;12.43;;;9.13;;
44248;SDS011;29923;48.718;9.272;2023-06-22T03:37:27;16.00;;;9.43;;
44248;SDS011;29923;48.718;9.272;2023-06-22T03:39:52;19.35;;;9.63;;
44248;SDS011;29923;48.718;9.272;2023-06-22T03:42:18;13.77;;;9.50;;
44248;SDS011;29923;48.718;9.272;2023-06-22T03:44:43;16.15;;;9.23;;
44248;SDS011;29923;48.718;9.272;2023-06-22T03:47:09;19.48;;;9.85;;
44248;SDS011;29923;48.718;9.272;2023-06-22T03:49:34;16.65;;;10.07;;
44248;SDS011;29923;48.718;9.272;2023-06-22T03:52:00;19.00;;;10.07;;
44248;SDS011;29923;48.718;9.272;2023-06-22T03:54:27;15.32;;;9.48;;
44248;SDS011;29923;48.718;9.272;2023-06-22T03:56:53;14.73;;;9.07;;
44248;SDS011;29923;48.718;9.272;2023-06-22T03:59:18;13.45;;;8.27;;
44248;SDS011;29923;48.718;9.272;2023-06-22T04:01:44;14.30;;;9.85;;
44248;SDS011;29923;48.718;9.272;2023-06-22T04:04:09;16.45;;;9.40;;
44248;SDS011;29923;48.718;9.272;2023-06-22T04:06:35;15.88;;;9.65;;
44248;SDS011;29923;48.718;9.272;2023-06-22T04:09:00;16.92;;;9.45;;
44248;SDS011;29923;48.718;9.272;2023-06-22T04:11:25;13.27;;;9.60;;
44248;SDS011;29923;48.718;9.272;2023-06-22T04:13:51;17.20;;;10.60;;
44248;SDS011;29923;48.718;9.272;2023-06-22T04:16:16;15.43;;;9.55;;
44248;SDS011;29923;48.718;9.272;2023-06-22T04:18:42;15.23;;;10.13;;
44248;SDS011;29923;48.718;9.272;2023-06-22T04:21:07;18.80;;;10.93;;
44248;SDS011;29923;48.718;9.272;2023-06-22T04:23:32;13.40;;;9.95;;
44248;SDS011;29923;48.718;9.272;2023-06-22T04:25:58;17.08;;;10.90;;
44248;SDS011;29923;48.718;9.272;2023-06-22T04:28:24;16.67;;;10.27;;
44248;SDS011;29923;48.718;9.272;2023-06-22T04:30:49;13.38;;;10.00;;
44248;SDS011;29923;48.718;9.272;2023-06-22T04:33:16;16.77;;;9.90;;
44248;SDS011;29923;48.718;9.272;2023-06-22T04:35:42;15.68;;;10.15;;
44248;SDS011;29923;48.718;9.272;2023-06-22T04:38:11;15.70;;;10.77;;
44248;SDS011;29923;48.718;9.272;2023-06-22T04:40:38;16.75;;;9.20;;
44248;SDS011;29923;48.718;9.272;2023-06-22T04:43:06;15.57;;;9.43;;
44248;SDS011;29923;48.718;9.272;2023-06-22T04:45:32;11.68;;;9.07;;
44248;SDS011;29923;48.718;9.272;2023-06-22T04:47:58;15.77;;;7.82;;
44248;SDS011;29923;48.718;9.272;2023-06-22T04:50:23;12.40;;;7.38;;
44248;SDS011;29923;48.718;9.272;2023-06-22T04:52:49;10.82;;;6.97;;
44248;SDS011;29923;48.718;9.272;2023-06-22T04:55:15;14.40;;;7.55;;
44248;SDS011;29923;48.718;9.272;2023-06-22T04:57:43;14.57;;;7.40;;
44248;SDS011;29923;48.718;9.272;2023-06-22T05:00:14;11.18;;;7.60;;
44248;SDS011;29923;48.718;9.272;2023-06-22T05:02:43;15.18;;;7.63;;
44248;SDS011;29923;48.718;9.272;2023-06-22T05:05:09;13.13;;;7.93;;
44248;SDS011;29923;48.718;9.272;2023-06-22T05:07:42;16.90;;;7.63;;
44248;SDS011;29923;48.718;9.272;2023-06-22T05:10:09;15.93;;;8.25;;
44248;SDS011;29923;48.718;9.272;2023-06-22T05:12:36;12.73;;;7.28;;
44248;SDS011;29923;48.718;9.272;2023-06-22T05:15:01;13.85;;;7.97;;
44248;SDS011;29923;48.718;9.272;2023-06-22T05:17:26;11.15;;;7.22;;
44248;SDS011;29923;48.718;9.272;2023-06-22T05:19:52;12.82;;;8.07;;
44248;SDS011;29923;48.718;9.272;2023-06-22T05:22:18;15.00;;;9.20;;
44248;SDS011;29923;48.718;9.272;2023-06-22T05:24:43;10.32;;;6.53;;
44248;SDS011;29923;48.718;9.272;2023-06-22T05:27:09;10.13;;;7.22;;
44248;SDS011;29923;48.718;9.272;2023-06-22T05:29:35;11.02;;;7.00;;
44248;SDS011;29923;48.718;9.272;2023-06-22T05:32:01;11.48;;;7.22;;
44248;SDS011;29923;48.718;9.272;2023-06-22T05:34:26;10.60;;;7.00;;
44248;SDS011;29923;48.718;9.272;2023-06-22T05:36:52;13.25;;;7.43;;
44248;SDS011;29923;48.718;9.272;2023-06-22T05:39:17;18.20;;;8.07;;
44248;SDS011;29923;48.718;9.272;2023-06-22T05:41:44;11.35;;;7.72;;
44248;SDS011;29923;48.718;9.272;2023-06-22T05:44:10;13.57;;;7.47;;
44248;SDS011;29923;48.718;9.272;2023-06-22T05:46:35;8.75;;;6.35;;
44248;SDS011;29923;48.718;9.272;2023-06-22T05:49:00;15.27;;;7.15;;
44248;SDS011;29923;48.718;9.272;2023-06-22T05:51:26;12.13;;;7.63;;
44248;SDS011;29923;48.718;9.272;2023-06-22T05:53:51;12.93;;;7.10;;
44248;SDS011;29923;48.718;9.272;2023-06-22T05:56:16;10.07;;;6.57;;
44248;SDS011;29923;48.718;9.272;2023-06-22T05:58:42;12.90;;;6.65;;
44248;SDS011;29923;48.718;9.272;2023-06-22T06:01:07;17.25;;;6.75;;
44248;SDS011;29923;48.718;9.272;2023-06-22T06:03:33;13.02;;;6.55;;
44248;SDS011;29923;48.718;9.272;2023-06-22T06:05:58;10.63;;;6.35;;
44248;SDS011;29923;48.718;9.272;2023-06-22T06:08:25;14.07;;;6.50;;
44248;SDS011;29923;48.718;9.272;2023-06-22T06:10:50;14.15;;;6.18;;
44248;SDS011;29923;48.718;9.272;2023-06-22T06:13:18;7.88;;;5.20;;
44248;SDS011;29923;48.718;9.272;2023-06-22T06:15:43;13.20;;;5.57;;
44248;SDS011;29923;48.718;9.272;2023-06-22T06:18:08;13.75;;;6.05;;
44248;SDS011;29923;48.718;9.272;2023-06-22T06:20:34;10.18;;;5.80;;
44248;SDS011;29923;48.718;9.272;2023-06-22T06:22:59;13.52;;;5.22;;
44248;SDS011;29923;48.718;9.272;2023-06-22T06:25:25;10.55;;;5.38;;
44248;SDS011;29923;48.718;9.272;2023-06-22T06:27:51;9.05;;;5.00;;
44248;SDS011;29923;48.718;9.272;2023-06-22T06:30:18;12.13;;;8.32;;
44248;SDS011;29923;48.718;9.272;2023-06-22T06:32:44;13.40;;;5.38;;
44248;SDS011;29923;48.718;9.272;2023-06-22T06:35:11;6.70;;;4.65;;
44248;SDS011;29923;48.718;9.272;2023-06-22T06:37:37;10.45;;;4.97;;
44248;SDS011;29923;48.718;9.272;2023-06-22T06:40:07;11.07;;;5.10;;
44248;SDS011;29923;48.718;9.272;2023-06-22T06:42:35;8.10;;;4.72;;
44248;SDS011;29923;48.718;9.272;2023-06-22T06:45:02;15.65;;;4.88;;
44248;SDS011;29923;48.718;9.272;2023-06-22T06:47:28;11.25;;;5.30;;
44248;SDS011;29923;48.718;9.272;2023-06-22T06:49:53;10.30;;;5.00;;
44248;SDS011;29923;48.718;9.272;2023-06-22T06:52:19;9.23;;;4.80;;
44248;SDS011;29923;48.718;9.272;2023-06-22T06:54:45;11.85;;;4.85;;
44248;SDS011;29923;48.718;9.272;2023-06-22T06:57:10;10.52;;;4.43;;
44248;SDS011;29923;48.718;9.272;2023-06-22T06:59:38;7.75;;;4.13;;
44248;SDS011;29923;48.718;9.272;2023-06-22T07:02:04;9.27;;;4.60;;
44248;SDS011;29923;48.718;9.272;2023-06-22T07:04:29;9.88;;;4.60;;
44248;SDS011;29923;48.718;9.272;2023-06-22T07:06:55;12.15;;;4.68;;
44248;SDS011;29923;48.718;9.272;2023-06-22T07:09:20;9.25;;;4.00;;
44248;SDS011;29923;48.718;9.272;2023-06-22T07:11:45;11.05;;;3.88;;
44248;SDS011;29923;48.718;9.272;2023-06-22T07:14:11;12.05;;;4.35;;
44248;SDS011;29923;48.718;9.272;2023-06-22T07:16:36;9.25;;;3.97;;
44248;SDS011;29923;48.718;9.272;2023-06-22T07:19:02;9.35;;;4.30;;
44248;SDS011;29923;48.718;9.272;2023-06-22T07:21:27;11.02;;;4.10;;
44248;SDS011;29923;48.718;9.272;2023-06-22T07:23:52;8.05;;;3.95;;
44248;SDS011;29923;48.718;9.272;2023-06-22T07:26:19;9.10;;;4.38;;
44248;SDS011;29923;48.718;9.272;2023-06-22T07:28:44;9.38;;;4.00;;
44248;SDS011;29923;48.718;9.272;2023-06-22T07:31:10;8.80;;;4.07;;
44248;SDS011;29923;48.718;9.272;2023-06-22T07:33:35;12.73;;;4.35;;
44248;SDS011;29923;48.718;9.272;2023-06-22T07:36:00;10.73;;;6.97;;
44248;SDS011;29923;48.718;9.272;2023-06-22T07:38:27;11.68;;;4.60;;
44248;SDS011;29923;48.718;9.272;2023-06-22T07:40:53;8.07;;;3.90;;
44248;SDS011;29923;48.718;9.272;2023-06-22T07:43:18;12.10;;;4.22;;
44248;SDS011;29923;48.718;9.272;2023-06-22T07:45:50;6.43;;;3.75;;
44248;SDS011;29923;48.718;9.272;2023-06-22T07:48:22;13.15;;;4.18;;
44248;SDS011;29923;48.718;9.272;2023-06-22T07:50:48;9.60;;;4.03;;
44248;SDS011;29923;48.718;9.272;2023-06-22T07:53:13;14.98;;;3.85;;
44248;SDS011;29923;48.718;9.272;2023-06-22T07:55:39;14.25;;;4.60;;
44248;SDS011;29923;48.718;9.272;2023-06-22T07:58:04;14.45;;;4.93;;
44248;SDS011;29923;48.718;9.272;2023-06-22T08:00:29;18.38;;;4.30;;
44248;SDS011;29923;48.718;9.272;2023-06-22T08:02:55;10.80;;;4.60;;
44248;SDS011;29923;48.718;9.272;2023-06-22T08:05:21;12.32;;;4.55;;
44248;SDS011;29923;48.718;9.272;2023-06-22T08:07:46;10.50;;;4.55;;
44248;SDS011;29923;48.718;9.272;2023-06-22T08:10:11;14.93;;;4.35;;
44248;SDS011;29923;48.718;9.272;2023-06-22T08:12:37;10.05;;;4.40;;
44248;SDS011;29923;48.718;9.272;2023-06-22T08:15:03;17.60;;;5.18;;
44248;SDS011;29923;48.718;9.272;2023-06-22T08:17:29;8.45;;;3.97;;
44248;SDS011;29923;48.718;9.272;2023-06-22T08:19:56;14.02;;;4.65;;
44248;SDS011;29923;48.718;9.272;2023-06-22T08:22:21;9.75;;;4.68;;
44248;SDS011;29923;48.718;9.272;2023-06-22T08:24:47;11.88;;;4.32;;
44248;SDS011;29923;48.718;9.272;2023-06-22T08:27:12;19.63;;;5.13;;
44248;SDS011;29923;48.718;9.272;2023-06-22T08:29:38;8.40;;;4.93;;
44248;SDS011;29923;48.718;9.272;2023-06-22T08:32:04;13.65;;;5.30;;
44248;SDS011;29923;48.718;9.272;2023-06-22T08:34:30;14.07;;;4.45;;
44248;SDS011;29923;48.718;9.272;2023-06-22T08:36:55;11.80;;;4.70;;
44248;SDS011;29923;48.718;9.272;2023-06-22T08:39:21;9.50;;;5.18;;
44248;SDS011;29923;48.718;9.272;2023-06-22T08:41:49;13.48;;;4.50;;
44248;SDS011;29923;48.718;9.272;2023-06-22T08:44:16;10.98;;;4.90;;
44248;SDS011;29923;48.718;9.272;2023-06-22T08:46:43;15.48;;;4.68;;
44248;SDS011;29923;48.718;9.272;2023-06-22T08:49:08;10.45;;;5.35;;
44248;SDS011;29923;48.718;9.272;2023-06-22T08:51:34;12.02;;;4.57;;
44248;SDS011;29923;48.718;9.272;2023-06-22T08:54:00;18.73;;;4.82;;
44248;SDS011;29923;48.718;9.272;2023-06-22T08:56:25;12.82;;;5.18;;
44248;SDS011;29923;48.718;9.272;2023-06-22T08:58:51;11.73;;;5.03;;
44248;SDS011;29923;48.718;9.272;2023-06-22T09:01:16;18.00;;;5.35;;
44248;SDS011;29923;48.718;9.272;2023-06-22T09:03:41;13.65;;;5.55;;
44248;SDS011;29923;48.718;9.272;2023-06-22T09:06:07;11.23;;;4.88;;
44248;SDS011;29923;48.718;9.272;2023-06-22T09:08:34;12.57;;;4.85;;
44248;SDS011;29923;48.718;9.272;2023-06-22T09:10:59;15.15;;;5.43;;
44248;SDS011;29923;48.718;9.272;2023-06-22T09:13:25;13.40;;;5.85;;
44248;SDS011;29923;48.718;9.272;2023-06-22T09:15:50;9.60;;;4.80;;
44248;SDS011;29923;48.718;9.272;2023-06-22T09:18:17;12.30;;;5.45;;
44248;SDS011;29923;48.718;9.272;2023-06-22T09:20:42;23.63;;;5.47;;
44248;SDS011;29923;48.718;9.272;2023-06-22T09:23:08;16.45;;;5.70;;
44248;SDS011;29923;48.718;9.272;2023-06-22T09:25:33;20.20;;;5.97;;
44248;SDS011;29923;48.718;9.272;2023-06-22T09:27:58;16.05;;;5.40;;
44248;SDS011;29923;48.718;9.272;2023-06-22T09:30:24;18.60;;;5.38;;
44248;SDS011;29923;48.718;9.272;2023-06-22T09:32:49;17.27;;;5.30;;
44248;SDS011;29923;48.718;9.272;2023-06-22T09:35:14;12.27;;;5.85;;
44248;SDS011;29923;48.718;9.272;2023-06-22T09:37:40;14.55;;;5.72;;
44248;SDS011;29923;48.718;9.272;2023-06-22T09:40:06;18.48;;;6.93;;
44248;SDS011;29923;48.718;9.272;2023-06-22T09:42:37;22.50;;;6.28;;
44248;SDS011;29923;48.718;9.272;2023-06-22T09:45:03;16.25;;;5.93;;
44248;SDS011;29923;48.718;9.272;2023-06-22T09:47:29;16.73;;;5.55;;
44248;SDS011;29923;48.718;9.272;2023-06-22T09:49:54;20.38;;;5.82;;
44248;SDS011;29923;48.718;9.272;2023-06-22T09:52:20;12.35;;;5.78;;
44248;SDS011;29923;48.718;9.272;2023-06-22T09:54:46;12.88;;;5.57;;
44248;SDS011;29923;48.718;9.272;2023-06-22T09:57:11;21.48;;;6.22;;
44248;SDS011;29923;48.718;9.272;2023-06-22T09:59:37;14.48;;;5.80;;
44248;SDS011;29923;48.718;9.272;2023-06-22T10:02:03;14.05;;;5.53;;
44248;SDS011;29923;48.718;9.272;2023-06-22T10:04:28;16.42;;;5.28;;
44248;SDS011;29923;48.718;9.272;2023-06-22T10:06:53;11.32;;;4.90;;
44248;SDS011;29923;48.718;9.272;2023-06-22T10:09:19;16.58;;;5.68;;
44248;SDS011;29923;48.718;9.272;2023-06-22T10:11:44;11.45;;;5.75;;
44248;SDS011;29923;48.718;9.272;2023-06-22T10:14:09;17.70;;;5.57;;
44248;SDS011;29923;48.718;9.272;2023-06-22T10:16:35;17.85;;;5.82;;
44248;SDS011;29923;48.718;9.272;2023-06-22T10:19:01;15.50;;;6.18;;
44248;SDS011;29923;48.718;9.272;2023-06-22T10:21:26;17.17;;;6.07;;
44248;SDS011;29923;48.718;9.272;2023-06-22T10:23:53;19.30;;;5.50;;
44248;SDS011;29923;48.718;9.272;2023-06-22T10:26:19;13.80;;;5.93;;
44248;SDS011;29923;48.718;9.272;2023-06-22T10:28:44;17.38;;;5.10;;
44248;SDS011;29923;48.718;9.272;2023-06-22T10:31:09;22.83;;;6.35;;
44248;SDS011;29923;48.718;9.272;2023-06-22T10:33:34;18.17;;;5.45;;
44248;SDS011;29923;48.718;9.272;2023-06-22T10:36:00;10.90;;;5.53;;
44248;SDS011;29923;48.718;9.272;2023-06-22T10:38:25;13.07;;;5.75;;
44248;SDS011;29923;48.718;9.272;2023-06-22T10:40:51;13.80;;;5.40;;
44248;SDS011;29923;48.718;9.272;2023-06-22T10:43:16;12.77;;;5.35;;
44248;SDS011;29923;48.718;9.272;2023-06-22T10:45:41;21.85;;;5.60;;
44248;SDS011;29923;48.718;9.272;2023-06-22T10:48:06;17.02;;;6.28;;
44248;SDS011;29923;48.718;9.272;2023-06-22T10:50:32;17.27;;;6.70;;
44248;SDS011;29923;48.718;9.272;2023-06-22T10:52:57;14.50;;;5.72;;
44248;SDS011;29923;48.718;9.272;2023-06-22T10:55:23;14.80;;;5.50;;
44248;SDS011;29923;48.718;9.272;2023-06-22T10:57:48;15.68;;;5.50;;
44248;SDS011;29923;48.718;9.272;2023-06-22T11:00:14;13.27;;;5.40;;
44248;SDS011;29923;48.718;9.272;2023-06-22T11:02:40;17.83;;;5.80;;
44248;SDS011;29923;48.718;9.272;2023-06-22T11:05:06;11.90;;;5.57;;
44248;SDS011;29923;48.718;9.272;2023-06-22T11:07:32;19.92;;;5.78;;
44248;SDS011;29923;48.718;9.272;2023-06-22T11:09:57;17.05;;;5.72;;
44248;SDS011;29923;48.718;9.272;2023-06-22T11:12:24;17.67;;;5.63;;
44248;SDS011;29923;48.718;9.272;2023-06-22T11:14:49;20.23;;;6.45;;
44248;SDS011;29923;48.718;9.272;2023-06-22T11:17:18;17.73;;;6.00;;
44248;SDS011;29923;48.718;9.272;2023-06-22T11:19:44;16.52;;;5.80;;
44248;SDS011;29923;48.718;9.272;2023-06-22T11:22:09;17.38;;;6.20;;
44248;SDS011;29923;48.718;9.272;2023-06-22T11:24:35;23.80;;;6.07;;
44248;SDS011;29923;48.718;9.272;2023-06-22T11:27:00;14.30;;;5.55;;
44248;SDS011;29923;48.718;9.272;2023-06-22T11:29:25;17.35;;;5.13;;
44248;SDS011;29923;48.718;9.272;2023-06-22T11:31:51;19.10;;;5.93;;
44248;SDS011;29923;48.718;9.272;2023-06-22T11:34:16;18.83;;;5.53;;
44248;SDS011;29923;48.718;9.272;2023-06-22T11:36:42;13.02;;;4.93;;
44248;SDS011;29923;48.718;9.272;2023-06-22T11:39:09;12.52;;;5.35;;
44248;SDS011;29923;48.718;9.272;2023-06-22T11:41:34;17.15;;;5.80;;
44248;SDS011;29923;48.718;9.272;2023-06-22T11:44:00;18.58;;;5.82;;
44248;SDS011;29923;48.718;9.272;2023-06-22T11:46:25;15.77;;;5.90;;
44248;SDS011;29923;48.718;9.272;2023-06-22T11:48:51;13.07;;;5.68;;
44248;SDS011;29923;48.718;9.272;2023-06-22T11:51:16;14.52;;;5.53;;
44248;SDS011;29923;48.718;9.272;2023-06-22T11:53:41;20.77;;;5.85;;
44248;SDS011;29923;48.718;9.272;2023-06-22T11:56:06;17.20;;;5.50;;
44248;SDS011;29923;48.718;9.272;2023-06-22T11:58:32;26.30;;;5.68;;
44248;SDS011;29923;48.718;9.272;2023-06-22T12:00:57;15.88;;;5.85;;
44248;SDS011;29923;48.718;9.272;2023-06-22T12:03:23;22.65;;;5.18;;
44248;SDS011;29923;48.718;9.272;2023-06-22T12:05:49;13.32;;;5.45;;
44248;SDS011;29923;48.718;9.272;2023-06-22T12:08:15;11.32;;;4.95;;
44248;SDS011;29923;48.718;9.272;2023-06-22T12:10:40;11.43;;;5.00;;
44248;SDS011;29923;48.718;9.272;2023-06-22T12:13:05;18.70;;;5.15;;
44248;SDS011;29923;48.718;9.272;2023-06-22T12:15:31;13.43;;;5.68;;
44248;SDS011;29923;48.718;9.272;2023-06-22T12:17:56;23.77;;;5.53;;
44248;SDS011;29923;48.718;9.272;2023-06-22T12:20:22;17.95;;;5.63;;
44248;SDS011;29923;48.718;9.272;2023-06-22T12:22:47;18.83;;;5.50;;
44248;SDS011;29923;48.718;9.272;2023-06-22T12:25:13;14.25;;;5.32;;
44248;SDS011;29923;48.718;9.272;2023-06-22T12:27:38;18.55;;;5.10;;
44248;SDS011;29923;48.718;9.272;2023-06-22T12:30:04;21.98;;;6.00;;
44248;SDS011;29923;48.718;9.272;2023-06-22T12:32:30;20.13;;;5.53;;
44248;SDS011;29923;48.718;9.272;2023-06-22T12:34:55;27.63;;;6.85;;
44248;SDS011;29923;48.718;9.272;2023-06-22T12:37:21;19.00;;;5.07;;
44248;SDS011;29923;48.718;9.272;2023-06-22T12:39:47;15.77;;;5.47;;
44248;SDS011;29923;48.718;9.272;2023-06-22T12:42:12;20.63;;;5.53;;
44248;SDS011;29923;48.718;9.272;2023-06-22T12:44:38;17.30;;;5.05;;
44248;SDS011;29923;48.718;9.272;2023-06-22T12:47:03;20.48;;;5.32;;
44248;SDS011;29923;48.718;9.272;2023-06-22T12:49:29;19.60;;;6.10;;
44248;SDS011;29923;48.718;9.272;2023-06-22T12:51:55;22.40;;;5.57;;
44248;SDS011;29923;48.718;9.272;2023-06-22T12:54:20;15.95;;;5.68;;
44248;SDS011;29923;48.718;9.272;2023-06-22T12:56:45;15.57;;;4.88;;
44248;SDS011;29923;48.718;9.272;2023-06-22T12:59:11;18.25;;;5.35;;
44248;SDS011;29923;48.718;9.272;2023-06-22T13:01:36;18.08;;;5.13;;
44248;SDS011;29923;48.718;9.272;2023-06-22T13:04:02;15.23;;;5.03;;
44248;SDS011;29923;48.718;9.272;2023-06-22T13:06:27;21.10;;;5.85;;
44248;SDS011;29923;48.718;9.272;2023-06-22T13:08:53;18.85;;;5.80;;
44248;SDS011;29923;48.718;9.272;2023-06-22T13:11:18;13.63;;;5.63;;
44248;SDS011;29923;48.718;9.272;2023-06-22T13:13:44;25.98;;;5.82;;
44248;SDS011;29923;48.718;9.272;2023-06-22T13:16:10;18.60;;;5.20;;
44248;SDS011;29923;48.718;9.272;2023-06-22T13:18:35;20.38;;;5.18;;
44248;SDS011;29923;48.718;9.272;2023-06-22T13:21:04;18.55;;;5.20;;
44248;SDS011;29923;48.718;9.272;2023-06-22T13:23:30;22.88;;;5.97;;
44248;SDS011;29923;48.718;9.272;2023-06-22T13:25:55;46.65;;;6.03;;
44248;SDS011;29923;48.718;9.272;2023-06-22T13:28:21;20.05;;;5.25;;
44248;SDS011;29923;48.718;9.272;2023-06-22T13:30:46;20.38;;;5.20;;
44248;SDS011;29923;48.718;9.272;2023-06-22T13:33:12;18.40;;;5.28;;
44248;SDS011;29923;48.718;9.272;2023-06-22T13:35:38;19.08;;;6.05;;
44248;SDS011;29923;48.718;9.272;2023-06-22T13:38:04;16.60;;;5.28;;
44248;SDS011;29923;48.718;9.272;2023-06-22T13:40:29;19.10;;;5.47;;
44248;SDS011;29923;48.718;9.272;2023-06-22T13:42:55;20.98;;;5.47;;
44248;SDS011;29923;48.718;9.272;2023-06-22T13:45:20;19.05;;;6.00;;
44248;SDS011;29923;48.718;9.272;2023-06-22T13:47:46;19.08;;;5.60;;
44248;SDS011;29923;48.718;9.272;2023-06-22T13:50:11;10.27;;;4.78;;
44248;SDS011;29923;48.718;9.272;2023-06-22T13:52:38;16.35;;;5.07;;
44248;SDS011;29923;48.718;9.272;2023-06-22T13:55:03;15.38;;;6.22;;
44248;SDS011;29923;48.718;9.272;2023-06-22T13:57:29;22.40;;;5.57;;
44248;SDS011;29923;48.718;9.272;2023-06-22T13:59:55;23.45;;;5.75;;
44248;SDS011;29923;48.718;9.272;2023-06-22T14:02:20;19.80;;;6.20;;
44248;SDS011;29923;48.718;9.272;2023-06-22T14:04:45;20.75;;;5.68;;
44248;SDS011;29923;48.718;9.272;2023-06-22T14:07:11;15.02;;;5.68;;
44248;SDS011;29923;48.718;9.272;2023-06-22T14:09:36;15.75;;;4.80;;
44248;SDS011;29923;48.718;9.272;2023-06-22T14:12:05;22.77;;;5.70;;
44248;SDS011;29923;48.718;9.272;2023-06-22T14:14:32;17.88;;;6.00;;
44248;SDS011;29923;48.718;9.272;2023-06-22T14:16:58;13.43;;;5.60;;
44248;SDS011;29923;48.718;9.272;2023-06-22T14:19:23;16.02;;;5.25;;
44248;SDS011;29923;48.718;9.272;2023-06-22T14:21:49;17.88;;;5.55;;
44248;SDS011;29923;48.718;9.272;2023-06-22T14:24:14;19.33;;;5.28;;
44248;SDS011;29923;48.718;9.272;2023-06-22T14:26:39;13.55;;;4.95;;
44248;SDS011;29923;48.718;9.272;2023-06-22T14:29:05;16.10;;;5.50;;
44248;SDS011;29923;48.718;9.272;2023-06-22T14:31:30;17.05;;;4.68;;
44248;SDS011;29923;48.718;9.272;2023-06-22T14:33:55;20.98;;;5.78;;